sensor_id;sensor_type;location;lat;lon;timestamp;pressure;altitude;pressure_sealevel;temperature;humidity
68320;BME280;55168;51.120;17.024;2023-03-04T00:00:00;100350;;;-0.1;100.0
68320;BME280;55168;51.120;17.024;2023-03-04T00:01:00;100350;;;-0.1;100.0
68320;BME280;55168;51.120;17.024;2023-03-04T00:02:00;100340;;;-0.2;100.0
68320;BME280;55168;51.120;17.024;2023-03-04T00:03:00;100340;;;-0.1;100.0
68320;BME280;55168;51.120;17.024;2023-03-04T00:04:00;100340;;;-0.1;100.0
68320;BME280;55168;51.120;17.024;2023-03-04T00:05:00;100340;;;-0.1;100.0
68320;BME280;55168;51.120;17.024;2023-03-04T00:06:00;100340;;;-0.1;100.0
68320;BME280;55168;51.120;17.024;2023-03-04T00:07:00;100330;;;-0.1;100.0
68320;BME280;55168;51.120;17.024;2023-03-04T00:08:00;100330;;;-0.1;100.0
68320;BME280;55168;51.120;17.024;2023-03-04T00:09:00;100330;;;-0.1;100.0
68320;BME280;55168;51.120;17.024;2023-03-04T00:10:00;100330;;;-0.1;100.0
68320;BME280;55168;51.120;17.024;2023-03-04T00:11:00;100330;;;-0.1;100.0
68320;BME280;55168;51.120;17.024;2023-03-04T00:12:00;100330;;;-0.1;100.0
68320;BME280;55168;51.120;17.024;2023-03-04T00:13:00;100330;;;-0.1;100.0
68320;BME280;55168;51.120;17.024;2023-03-04T00:14:00;100330;;;-0.1;100.0
68320;BME280;55168;51.120;17.024;2023-03-04T00:15:00;100320;;;-0.1;100.0
68320;BME280;55168;51.120;17.024;2023-03-04T00:16:00;100330;;;-0.1;100.0
68320;BME280;55168;51.120;17.024;2023-03-04T00:17:00;100320;;;-0.1;100.0
68320;BME280;55168;51.120;17.024;2023-03-04T00:18:00;100330;;;0.0;100.0
68320;BME280;55168;51.120;17.024;2023-03-04T00:19:00;100320;;;0.0;100.0
68320;BME280;55168;51.120;17.024;2023-03-04T00:20:00;100320;;;0.1;100.0
68320;BME280;55168;51.120;17.024;2023-03-04T00:21:00;100320;;;0.1;100.0
68320;BME280;55168;51.120;17.024;2023-03-04T00:22:00;100320;;;0.1;100.0
68320;BME280;55168;51.120;17.024;2023-03-04T00:23:00;100320;;;0.1;100.0
68320;BME280;55168;51.120;17.024;2023-03-04T00:24:00;100320;;;0.1;100.0
68320;BME280;55168;51.120;17.024;2023-03-04T00:25:00;100310;;;0.1;100.0
68320;BME280;55168;51.120;17.024;2023-03-04T00:26:00;100310;;;0.1;100.0
68320;BME280;55168;51.120;17.024;2023-03-04T00:27:00;100310;;;0.1;100.0
68320;BME280;55168;51.120;17.024;2023-03-04T00:28:00;100310;;;0.1;100.0
68320;BME280;55168;51.120;17.024;2023-03-04T00:29:00;100310;;;0.1;100.0
68320;BME280;55168;51.120;17.024;2023-03-04T00:30:00;100300;;;0.1;100.0
68320;BME280;55168;51.120;17.024;2023-03-04T00:31:00;100300;;;0.1;100.0
68320;BME280;55168;51.120;17.024;2023-03-04T00:32:00;100300;;;0.1;100.0
68320;BME280;55168;51.120;17.024;2023-03-04T00:33:00;100300;;;0.1;100.0
68320;BME280;55168;51.120;17.024;2023-03-04T00:34:00;100300;;;0.1;100.0
68320;BME280;55168;51.120;17.024;2023-03-04T00:35:00;100290;;;0.1;100.0
68320;BME280;55168;51.120;17.024;2023-03-04T00:36:02;100280;;;0.1;100.0
68320;BME280;55168;51.120;17.024;2023-03-04T00:37:00;100290;;;-0.0;100.0
68320;BME280;55168;51.120;17.024;2023-03-04T00:38:00;100280;;;-0.0;100.0
68320;BME280;55168;51.120;17.024;2023-03-04T00:39:00;100280;;;0.0;100.0
68320;BME280;55168;51.120;17.024;2023-03-04T00:40:00;100290;;;0.0;100.0
68320;BME280;55168;51.120;17.024;2023-03-04T00:41:00;100290;;;0.0;100.0
68320;BME280;55168;51.120;17.024;2023-03-04T00:42:00;100280;;;0.1;100.0
68320;BME280;55168;51.120;17.024;2023-03-04T00:43:00;100280;;;0.2;100.0
68320;BME280;55168;51.120;17.024;2023-03-04T00:44:00;100280;;;0.2;100.0
68320;BME280;55168;51.120;17.024;2023-03-04T00:45:00;100280;;;0.2;100.0
68320;BME280;55168;51.120;17.024;2023-03-04T00:46:00;100280;;;0.2;100.0
68320;BME280;55168;51.120;17.024;2023-03-04T00:47:00;100280;;;0.1;100.0
68320;BME280;55168;51.120;17.024;2023-03-04T00:48:00;100280;;;0.2;100.0
68320;BME280;55168;51.120;17.024;2023-03-04T00:49:00;100280;;;0.2;100.0
68320;BME280;55168;51.120;17.024;2023-03-04T00:50:00;100270;;;0.2;100.0
68320;BME280;55168;51.120;17.024;2023-03-04T00:51:00;100270;;;0.1;100.0
68320;BME280;55168;51.120;17.024;2023-03-04T00:52:00;100260;;;0.1;100.0
68320;BME280;55168;51.120;17.024;2023-03-04T00:53:00;100270;;;0.1;100.0
68320;BME280;55168;51.120;17.024;2023-03-04T00:54:00;100270;;;0.1;100.0
68320;BME280;55168;51.120;17.024;2023-03-04T00:55:00;100260;;;0.1;100.0
68320;BME280;55168;51.120;17.024;2023-03-04T00:56:00;100260;;;0.1;100.0
68320;BME280;55168;51.120;17.024;2023-03-04T00:57:00;100260;;;0.2;100.0
68320;BME280;55168;51.120;17.024;2023-03-04T00:58:00;100260;;;0.2;100.0
68320;BME280;55168;51.120;17.024;2023-03-04T00:59:00;100260;;;0.2;100.0
68320;BME280;55168;51.120;17.024;2023-03-04T01:00:00;100260;;;0.2;100.0
68320;BME280;55168;51.120;17.024;2023-03-04T01:01:00;100260;;;0.2;100.0
68320;BME280;55168;51.120;17.024;2023-03-04T01:02:00;100260;;;0.2;100.0
68320;BME280;55168;51.120;17.024;2023-03-04T01:03:00;100250;;;0.2;100.0
68320;BME280;55168;51.120;17.024;2023-03-04T01:04:00;100250;;;0.2;100.0
68320;BME280;55168;51.120;17.024;2023-03-04T01:05:00;100250;;;0.1;100.0
68320;BME280;55168;51.120;17.024;2023-03-04T01:06:00;100250;;;0.1;100.0
68320;BME280;55168;51.120;17.024;2023-03-04T01:07:00;100250;;;0.1;100.0
68320;BME280;55168;51.120;17.024;2023-03-04T01:08:00;100250;;;0.0;100.0
68320;BME280;55168;51.120;17.024;2023-03-04T01:09:00;100250;;;0.0;100.0
68320;BME280;55168;51.120;17.024;2023-03-04T01:10:00;100250;;;0.0;100.0
68320;BME280;55168;51.120;17.024;2023-03-04T01:11:00;100250;;;0.0;100.0
68320;BME280;55168;51.120;17.024;2023-03-04T01:12:00;100260;;;0.1;100.0
68320;BME280;55168;51.120;17.024;2023-03-04T01:13:00;100250;;;0.1;100.0
68320;BME280;55168;51.120;17.024;2023-03-04T01:14:00;100250;;;0.1;100.0
68320;BME280;55168;51.120;17.024;2023-03-04T01:15:00;100250;;;0.2;100.0
68320;BME280;55168;51.120;17.024;2023-03-04T01:16:00;100250;;;0.2;100.0
68320;BME280;55168;51.120;17.024;2023-03-04T01:17:00;100250;;;0.2;100.0
68320;BME280;55168;51.120;17.024;2023-03-04T01:18:00;100240;;;0.2;100.0
68320;BME280;55168;51.120;17.024;2023-03-04T01:19:00;100240;;;0.3;100.0
68320;BME280;55168;51.120;17.024;2023-03-04T01:20:00;100240;;;0.3;100.0
68320;BME280;55168;51.120;17.024;2023-03-04T01:21:00;100240;;;0.3;100.0
68320;BME280;55168;51.120;17.024;2023-03-04T01:22:00;100240;;;0.2;100.0
68320;BME280;55168;51.120;17.024;2023-03-04T01:23:00;100230;;;0.2;100.0
68320;BME280;55168;51.120;17.024;2023-03-04T01:24:00;100230;;;0.2;100.0
68320;BME280;55168;51.120;17.024;2023-03-04T01:25:00;100220;;;0.2;100.0
68320;BME280;55168;51.120;17.024;2023-03-04T01:26:00;100220;;;0.2;100.0
68320;BME280;55168;51.120;17.024;2023-03-04T01:27:00;100220;;;0.2;100.0
68320;BME280;55168;51.120;17.024;2023-03-04T01:28:00;100220;;;0.2;100.0
68320;BME280;55168;51.120;17.024;2023-03-04T01:29:00;100220;;;0.2;100.0
68320;BME280;55168;51.120;17.024;2023-03-04T01:30:00;100220;;;0.2;100.0
68320;BME280;55168;51.120;17.024;2023-03-04T01:31:01;100220;;;0.2;100.0
68320;BME280;55168;51.120;17.024;2023-03-04T01:32:00;100210;;;0.2;100.0
68320;BME280;55168;51.120;17.024;2023-03-04T01:33:00;100210;;;0.2;100.0
68320;BME280;55168;51.120;17.024;2023-03-04T01:34:00;100210;;;0.2;100.0
68320;BME280;55168;51.120;17.024;2023-03-04T01:35:00;100210;;;0.1;100.0
68320;BME280;55168;51.120;17.024;2023-03-04T01:36:00;100210;;;0.1;100.0
68320;BME280;55168;51.120;17.024;2023-03-04T01:37:00;100200;;;0.1;100.0
68320;BME280;55168;51.120;17.024;2023-03-04T01:38:00;100210;;;0.1;100.0
68320;BME280;55168;51.120;17.024;2023-03-04T01:39:00;100200;;;0.1;100.0
68320;BME280;55168;51.120;17.024;2023-03-04T01:40:00;100210;;;0.2;100.0
68320;BME280;55168;51.120;17.024;2023-03-04T01:41:00;100200;;;0.2;100.0
68320;BME280;55168;51.120;17.024;2023-03-04T01:42:00;100200;;;0.2;100.0
68320;BME280;55168;51.120;17.024;2023-03-04T01:43:00;100200;;;0.2;100.0
68320;BME280;55168;51.120;17.024;2023-03-04T01:44:00;100190;;;0.2;100.0
68320;BME280;55168;51.120;17.024;2023-03-04T01:45:00;100200;;;0.2;100.0
68320;BME280;55168;51.120;17.024;2023-03-04T01:46:00;100190;;;0.1;100.0
68320;BME280;55168;51.120;17.024;2023-03-04T01:47:00;100190;;;0.1;100.0
68320;BME280;55168;51.120;17.024;2023-03-04T01:48:00;100180;;;0.1;100.0
68320;BME280;55168;51.120;17.024;2023-03-04T01:49:00;100190;;;0.2;100.0
68320;BME280;55168;51.120;17.024;2023-03-04T01:50:00;100180;;;0.1;100.0
68320;BME280;55168;51.120;17.024;2023-03-04T01:51:00;100180;;;0.1;100.0
68320;BME280;55168;51.120;17.024;2023-03-04T01:52:00;100180;;;0.2;100.0
68320;BME280;55168;51.120;17.024;2023-03-04T01:53:00;100180;;;0.2;100.0
68320;BME280;55168;51.120;17.024;2023-03-04T01:54:00;100180;;;0.2;100.0
68320;BME280;55168;51.120;17.024;2023-03-04T01:55:00;100170;;;0.2;100.0
68320;BME280;55168;51.120;17.024;2023-03-04T01:56:01;100170;;;0.2;100.0
68320;BME280;55168;51.120;17.024;2023-03-04T01:57:00;100170;;;0.2;100.0
68320;BME280;55168;51.120;17.024;2023-03-04T01:58:00;100170;;;0.2;100.0
68320;BME280;55168;51.120;17.024;2023-03-04T02:01:00;100160;;;0.2;100.0
68320;BME280;55168;51.120;17.024;2023-03-04T02:02:00;100160;;;0.2;100.0
68320;BME280;55168;51.120;17.024;2023-03-04T02:03:02;100170;;;0.3;100.0
68320;BME280;55168;51.120;17.024;2023-03-04T02:04:00;100160;;;0.2;100.0
68320;BME280;55168;51.120;17.024;2023-03-04T02:05:00;100150;;;0.2;100.0
68320;BME280;55168;51.120;17.024;2023-03-04T02:06:00;100160;;;0.2;100.0
68320;BME280;55168;51.120;17.024;2023-03-04T02:07:00;100160;;;0.2;100.0
68320;BME280;55168;51.120;17.024;2023-03-04T02:08:00;100160;;;0.2;100.0
68320;BME280;55168;51.120;17.024;2023-03-04T02:09:00;100160;;;0.3;100.0
68320;BME280;55168;51.120;17.024;2023-03-04T02:10:00;100160;;;0.3;100.0
68320;BME280;55168;51.120;17.024;2023-03-04T02:11:00;100160;;;0.3;100.0
68320;BME280;55168;51.120;17.024;2023-03-04T02:12:00;100160;;;0.2;100.0
68320;BME280;55168;51.120;17.024;2023-03-04T02:13:00;100160;;;0.2;100.0
68320;BME280;55168;51.120;17.024;2023-03-04T02:14:00;100160;;;0.2;100.0
68320;BME280;55168;51.120;17.024;2023-03-04T02:15:00;100160;;;0.2;100.0
68320;BME280;55168;51.120;17.024;2023-03-04T02:16:00;100160;;;0.2;100.0
68320;BME280;55168;51.120;17.024;2023-03-04T02:17:00;100160;;;0.2;100.0
68320;BME280;55168;51.120;17.024;2023-03-04T02:18:00;100170;;;0.2;100.0
68320;BME280;55168;51.120;17.024;2023-03-04T02:19:00;100170;;;0.2;100.0
68320;BME280;55168;51.120;17.024;2023-03-04T02:20:04;100170;;;0.2;100.0
68320;BME280;55168;51.120;17.024;2023-03-04T02:22:00;100170;;;0.2;100.0
68320;BME280;55168;51.120;17.024;2023-03-04T02:23:03;100170;;;0.2;100.0
68320;BME280;55168;51.120;17.024;2023-03-04T02:25:02;100170;;;0.2;100.0
68320;BME280;55168;51.120;17.024;2023-03-04T02:26:16;100160;;;0.2;100.0
68320;BME280;55168;51.120;17.024;2023-03-04T02:27:00;100170;;;0.2;100.0
68320;BME280;55168;51.120;17.024;2023-03-04T02:28:00;100160;;;0.2;100.0
68320;BME280;55168;51.120;17.024;2023-03-04T02:29:00;100150;;;0.2;100.0
68320;BME280;55168;51.120;17.024;2023-03-04T02:30:00;100160;;;0.2;100.0
68320;BME280;55168;51.120;17.024;2023-03-04T02:31:00;100160;;;0.2;100.0
68320;BME280;55168;51.120;17.024;2023-03-04T02:32:00;100150;;;0.2;100.0
68320;BME280;55168;51.120;17.024;2023-03-04T02:33:00;100160;;;0.2;100.0
68320;BME280;55168;51.120;17.024;2023-03-04T02:34:02;100150;;;0.2;100.0
68320;BME280;55168;51.120;17.024;2023-03-04T02:35:00;100160;;;0.2;100.0
68320;BME280;55168;51.120;17.024;2023-03-04T02:36:00;100170;;;0.2;100.0
68320;BME280;55168;51.120;17.024;2023-03-04T02:37:00;100170;;;0.2;100.0
68320;BME280;55168;51.120;17.024;2023-03-04T02:38:00;100160;;;0.2;100.0
68320;BME280;55168;51.120;17.024;2023-03-04T02:39:02;100160;;;0.2;100.0
68320;BME280;55168;51.120;17.024;2023-03-04T02:40:00;100160;;;0.3;100.0
68320;BME280;55168;51.120;17.024;2023-03-04T02:41:00;100160;;;0.2;100.0
68320;BME280;55168;51.120;17.024;2023-03-04T02:42:00;100150;;;0.2;100.0
68320;BME280;55168;51.120;17.024;2023-03-04T02:43:00;100150;;;0.2;100.0
68320;BME280;55168;51.120;17.024;2023-03-04T02:44:00;100150;;;0.2;100.0
68320;BME280;55168;51.120;17.024;2023-03-04T02:45:00;100150;;;0.2;100.0
68320;BME280;55168;51.120;17.024;2023-03-04T02:46:00;100150;;;0.2;100.0
68320;BME280;55168;51.120;17.024;2023-03-04T02:47:00;100150;;;0.2;100.0
68320;BME280;55168;51.120;17.024;2023-03-04T02:48:00;100140;;;0.2;100.0
68320;BME280;55168;51.120;17.024;2023-03-04T02:49:00;100140;;;0.3;100.0
68320;BME280;55168;51.120;17.024;2023-03-04T02:50:00;100140;;;0.3;100.0
68320;BME280;55168;51.120;17.024;2023-03-04T02:51:00;100150;;;0.4;100.0
68320;BME280;55168;51.120;17.024;2023-03-04T02:52:03;100140;;;0.4;100.0
68320;BME280;55168;51.120;17.024;2023-03-04T02:53:00;100140;;;0.3;100.0
68320;BME280;55168;51.120;17.024;2023-03-04T02:54:00;100140;;;0.3;100.0
68320;BME280;55168;51.120;17.024;2023-03-04T02:55:00;100130;;;0.3;100.0
68320;BME280;55168;51.120;17.024;2023-03-04T02:56:00;100130;;;0.3;100.0
68320;BME280;55168;51.120;17.024;2023-03-04T02:57:01;100130;;;0.3;100.0
68320;BME280;55168;51.120;17.024;2023-03-04T02:58:00;100120;;;0.3;100.0
68320;BME280;55168;51.120;17.024;2023-03-04T02:59:00;100130;;;0.3;100.0
68320;BME280;55168;51.120;17.024;2023-03-04T03:00:00;100120;;;0.2;100.0
68320;BME280;55168;51.120;17.024;2023-03-04T03:01:00;100120;;;0.2;100.0
68320;BME280;55168;51.120;17.024;2023-03-04T03:02:00;100120;;;0.2;100.0
68320;BME280;55168;51.120;17.024;2023-03-04T03:03:00;100120;;;0.2;100.0
68320;BME280;55168;51.120;17.024;2023-03-04T03:04:00;100130;;;0.2;100.0
68320;BME280;55168;51.120;17.024;2023-03-04T03:05:00;100110;;;0.2;100.0
68320;BME280;55168;51.120;17.024;2023-03-04T03:06:00;100120;;;0.3;100.0
68320;BME280;55168;51.120;17.024;2023-03-04T03:07:00;100120;;;0.3;100.0
68320;BME280;55168;51.120;17.024;2023-03-04T03:08:00;100120;;;0.3;100.0
68320;BME280;55168;51.120;17.024;2023-03-04T03:09:00;100120;;;0.2;100.0
68320;BME280;55168;51.120;17.024;2023-03-04T03:10:00;100130;;;0.2;100.0
68320;BME280;55168;51.120;17.024;2023-03-04T03:11:00;100120;;;0.2;100.0
68320;BME280;55168;51.120;17.024;2023-03-04T03:12:00;100120;;;0.2;100.0
68320;BME280;55168;51.120;17.024;2023-03-04T03:13:00;100110;;;0.2;100.0
68320;BME280;55168;51.120;17.024;2023-03-04T03:14:00;100120;;;0.3;100.0
68320;BME280;55168;51.120;17.024;2023-03-04T03:15:00;100120;;;0.3;100.0
68320;BME280;55168;51.120;17.024;2023-03-04T03:16:00;100120;;;0.3;100.0
68320;BME280;55168;51.120;17.024;2023-03-04T03:17:00;100120;;;0.3;100.0
68320;BME280;55168;51.120;17.024;2023-03-04T03:18:00;100120;;;0.3;100.0
68320;BME280;55168;51.120;17.024;2023-03-04T03:19:00;100120;;;0.3;100.0
68320;BME280;55168;51.120;17.024;2023-03-04T03:20:00;100130;;;0.3;100.0
68320;BME280;55168;51.120;17.024;2023-03-04T03:21:00;100110;;;0.3;100.0
68320;BME280;55168;51.120;17.024;2023-03-04T03:22:00;100120;;;0.4;100.0
68320;BME280;55168;51.120;17.024;2023-03-04T03:23:00;100120;;;0.4;100.0
68320;BME280;55168;51.120;17.024;2023-03-04T03:24:00;100120;;;0.4;100.0
68320;BME280;55168;51.120;17.024;2023-03-04T03:25:00;100110;;;0.3;100.0
68320;BME280;55168;51.120;17.024;2023-03-04T03:26:00;100120;;;0.3;100.0
68320;BME280;55168;51.120;17.024;2023-03-04T03:27:00;100120;;;0.3;100.0
68320;BME280;55168;51.120;17.024;2023-03-04T03:28:00;100110;;;0.3;100.0
68320;BME280;55168;51.120;17.024;2023-03-04T03:29:00;100110;;;0.3;100.0
68320;BME280;55168;51.120;17.024;2023-03-04T03:30:00;100110;;;0.3;100.0
68320;BME280;55168;51.120;17.024;2023-03-04T03:31:00;100110;;;0.3;100.0
68320;BME280;55168;51.120;17.024;2023-03-04T03:32:00;100110;;;0.3;100.0
68320;BME280;55168;51.120;17.024;2023-03-04T03:33:00;100100;;;0.3;100.0
68320;BME280;55168;51.120;17.024;2023-03-04T03:34:00;100110;;;0.3;100.0
68320;BME280;55168;51.120;17.024;2023-03-04T03:35:00;100110;;;0.3;100.0
68320;BME280;55168;51.120;17.024;2023-03-04T03:36:00;100100;;;0.3;100.0
68320;BME280;55168;51.120;17.024;2023-03-04T03:37:00;100110;;;0.3;100.0
68320;BME280;55168;51.120;17.024;2023-03-04T03:38:00;100100;;;0.3;100.0
68320;BME280;55168;51.120;17.024;2023-03-04T03:39:00;100110;;;0.2;100.0
68320;BME280;55168;51.120;17.024;2023-03-04T03:40:00;100110;;;0.2;100.0
68320;BME280;55168;51.120;17.024;2023-03-04T03:41:00;100110;;;0.2;100.0
68320;BME280;55168;51.120;17.024;2023-03-04T03:42:00;100110;;;0.3;100.0
68320;BME280;55168;51.120;17.024;2023-03-04T03:43:00;100110;;;0.2;100.0
68320;BME280;55168;51.120;17.024;2023-03-04T03:44:00;100100;;;0.2;100.0
68320;BME280;55168;51.120;17.024;2023-03-04T03:45:00;100110;;;0.3;100.0
68320;BME280;55168;51.120;17.024;2023-03-04T03:46:00;100100;;;0.3;100.0
68320;BME280;55168;51.120;17.024;2023-03-04T03:47:00;100100;;;0.3;100.0
68320;BME280;55168;51.120;17.024;2023-03-04T03:48:00;100100;;;0.3;100.0
68320;BME280;55168;51.120;17.024;2023-03-04T03:49:00;100110;;;0.3;100.0
68320;BME280;55168;51.120;17.024;2023-03-04T03:50:00;100090;;;0.3;100.0
68320;BME280;55168;51.120;17.024;2023-03-04T03:51:00;100100;;;0.3;100.0
68320;BME280;55168;51.120;17.024;2023-03-04T03:52:00;100090;;;0.3;100.0
68320;BME280;55168;51.120;17.024;2023-03-04T03:53:00;100100;;;0.3;100.0
68320;BME280;55168;51.120;17.024;2023-03-04T03:54:00;100090;;;0.3;100.0
68320;BME280;55168;51.120;17.024;2023-03-04T03:55:00;100090;;;0.3;100.0
68320;BME280;55168;51.120;17.024;2023-03-04T03:56:00;100100;;;0.4;100.0
68320;BME280;55168;51.120;17.024;2023-03-04T03:57:00;100090;;;0.4;100.0
68320;BME280;55168;51.120;17.024;2023-03-04T03:58:00;100080;;;0.4;100.0
68320;BME280;55168;51.120;17.024;2023-03-04T03:59:00;100090;;;0.3;100.0
68320;BME280;55168;51.120;17.024;2023-03-04T04:00:00;100090;;;0.3;100.0
68320;BME280;55168;51.120;17.024;2023-03-04T04:01:00;100090;;;0.3;100.0
68320;BME280;55168;51.120;17.024;2023-03-04T04:02:00;100090;;;0.4;100.0
68320;BME280;55168;51.120;17.024;2023-03-04T04:03:00;100090;;;0.4;100.0
68320;BME280;55168;51.120;17.024;2023-03-04T04:04:00;100090;;;0.4;100.0
68320;BME280;55168;51.120;17.024;2023-03-04T04:05:00;100090;;;0.4;100.0
68320;BME280;55168;51.120;17.024;2023-03-04T04:06:00;100080;;;0.5;100.0
68320;BME280;55168;51.120;17.024;2023-03-04T04:07:00;100080;;;0.4;100.0
68320;BME280;55168;51.120;17.024;2023-03-04T04:08:00;100080;;;0.4;100.0
68320;BME280;55168;51.120;17.024;2023-03-04T04:09:00;100090;;;0.5;100.0
68320;BME280;55168;51.120;17.024;2023-03-04T04:10:00;100080;;;0.4;100.0
68320;BME280;55168;51.120;17.024;2023-03-04T04:11:00;100080;;;0.4;100.0
68320;BME280;55168;51.120;17.024;2023-03-04T04:12:00;100080;;;0.4;100.0
68320;BME280;55168;51.120;17.024;2023-03-04T04:13:00;100090;;;0.4;100.0
68320;BME280;55168;51.120;17.024;2023-03-04T04:14:00;100080;;;0.4;100.0
68320;BME280;55168;51.120;17.024;2023-03-04T04:15:00;100080;;;0.4;100.0
68320;BME280;55168;51.120;17.024;2023-03-04T04:16:00;100080;;;0.4;100.0
68320;BME280;55168;51.120;17.024;2023-03-04T04:17:00;100080;;;0.4;100.0
68320;BME280;55168;51.120;17.024;2023-03-04T04:18:00;100070;;;0.4;100.0
68320;BME280;55168;51.120;17.024;2023-03-04T04:19:00;100070;;;0.4;100.0
68320;BME280;55168;51.120;17.024;2023-03-04T04:20:00;100070;;;0.4;100.0
68320;BME280;55168;51.120;17.024;2023-03-04T04:21:00;100070;;;0.4;100.0
68320;BME280;55168;51.120;17.024;2023-03-04T04:22:00;100070;;;0.4;100.0
68320;BME280;55168;51.120;17.024;2023-03-04T04:23:00;100080;;;0.4;100.0
68320;BME280;55168;51.120;17.024;2023-03-04T04:24:00;100080;;;0.4;100.0
68320;BME280;55168;51.120;17.024;2023-03-04T04:25:00;100080;;;0.5;100.0
68320;BME280;55168;51.120;17.024;2023-03-04T04:26:00;100090;;;0.5;100.0
68320;BME280;55168;51.120;17.024;2023-03-04T04:27:00;100080;;;0.5;100.0
68320;BME280;55168;51.120;17.024;2023-03-04T04:28:00;100080;;;0.5;100.0
68320;BME280;55168;51.120;17.024;2023-03-04T04:29:00;100080;;;0.5;100.0
68320;BME280;55168;51.120;17.024;2023-03-04T04:30:00;100080;;;0.5;100.0
68320;BME280;55168;51.120;17.024;2023-03-04T04:31:00;100080;;;0.5;100.0
68320;BME280;55168;51.120;17.024;2023-03-04T04:32:00;100080;;;0.5;100.0
68320;BME280;55168;51.120;17.024;2023-03-04T04:33:00;100080;;;0.5;100.0
68320;BME280;55168;51.120;17.024;2023-03-04T04:34:00;100080;;;0.5;100.0
68320;BME280;55168;51.120;17.024;2023-03-04T04:35:00;100080;;;0.5;100.0
68320;BME280;55168;51.120;17.024;2023-03-04T04:36:00;100080;;;0.6;100.0
68320;BME280;55168;51.120;17.024;2023-03-04T04:37:00;100070;;;0.5;100.0
68320;BME280;55168;51.120;17.024;2023-03-04T04:38:00;100070;;;0.5;100.0
68320;BME280;55168;51.120;17.024;2023-03-04T04:39:00;100070;;;0.5;100.0
68320;BME280;55168;51.120;17.024;2023-03-04T04:40:00;100070;;;0.5;100.0
68320;BME280;55168;51.120;17.024;2023-03-04T04:41:00;100070;;;0.6;100.0
68320;BME280;55168;51.120;17.024;2023-03-04T04:42:00;100070;;;0.6;100.0
68320;BME280;55168;51.120;17.024;2023-03-04T04:43:00;100070;;;0.7;100.0
68320;BME280;55168;51.120;17.024;2023-03-04T04:44:00;100060;;;0.6;100.0
68320;BME280;55168;51.120;17.024;2023-03-04T04:45:00;100060;;;0.6;100.0
68320;BME280;55168;51.120;17.024;2023-03-04T04:46:00;100060;;;0.6;100.0
68320;BME280;55168;51.120;17.024;2023-03-04T04:47:00;100050;;;0.6;100.0
68320;BME280;55168;51.120;17.024;2023-03-04T04:48:00;100060;;;0.5;100.0
68320;BME280;55168;51.120;17.024;2023-03-04T04:49:00;100060;;;0.5;100.0
68320;BME280;55168;51.120;17.024;2023-03-04T04:50:00;100050;;;0.5;100.0
68320;BME280;55168;51.120;17.024;2023-03-04T04:51:00;100050;;;0.6;100.0
68320;BME280;55168;51.120;17.024;2023-03-04T04:52:00;100040;;;0.6;100.0
68320;BME280;55168;51.120;17.024;2023-03-04T04:53:00;100040;;;0.6;100.0
68320;BME280;55168;51.120;17.024;2023-03-04T04:54:00;100040;;;0.6;100.0
68320;BME280;55168;51.120;17.024;2023-03-04T04:55:00;100040;;;0.6;100.0
68320;BME280;55168;51.120;17.024;2023-03-04T04:56:06;100040;;;0.6;100.0
68320;BME280;55168;51.120;17.024;2023-03-04T04:57:00;100030;;;0.6;100.0
68320;BME280;55168;51.120;17.024;2023-03-04T04:58:00;100040;;;0.6;100.0
68320;BME280;55168;51.120;17.024;2023-03-04T04:59:02;100030;;;0.6;100.0
68320;BME280;55168;51.120;17.024;2023-03-04T05:00:00;100030;;;0.6;100.0
68320;BME280;55168;51.120;17.024;2023-03-04T05:01:00;100020;;;0.6;100.0
68320;BME280;55168;51.120;17.024;2023-03-04T05:02:00;100020;;;0.6;100.0
68320;BME280;55168;51.120;17.024;2023-03-04T05:03:00;100030;;;0.6;100.0
68320;BME280;55168;51.120;17.024;2023-03-04T05:04:00;100030;;;0.7;100.0
68320;BME280;55168;51.120;17.024;2023-03-04T05:05:00;100030;;;0.7;100.0
68320;BME280;55168;51.120;17.024;2023-03-04T05:06:00;100020;;;0.7;100.0
68320;BME280;55168;51.120;17.024;2023-03-04T05:07:00;100020;;;0.7;100.0
68320;BME280;55168;51.120;17.024;2023-03-04T05:08:00;100020;;;0.7;100.0
68320;BME280;55168;51.120;17.024;2023-03-04T05:09:00;100010;;;0.6;100.0
68320;BME280;55168;51.120;17.024;2023-03-04T05:10:00;100010;;;0.7;100.0
68320;BME280;55168;51.120;17.024;2023-03-04T05:11:00;100010;;;0.7;100.0
68320;BME280;55168;51.120;17.024;2023-03-04T05:12:00;100010;;;0.7;100.0
68320;BME280;55168;51.120;17.024;2023-03-04T05:13:00;100010;;;0.7;100.0
68320;BME280;55168;51.120;17.024;2023-03-04T05:14:00;100010;;;0.7;100.0
68320;BME280;55168;51.120;17.024;2023-03-04T05:15:00;100020;;;0.7;100.0
68320;BME280;55168;51.120;17.024;2023-03-04T05:16:00;100010;;;0.7;100.0
68320;BME280;55168;51.120;17.024;2023-03-04T05:17:00;100020;;;0.6;100.0
68320;BME280;55168;51.120;17.024;2023-03-04T05:18:00;100020;;;0.7;100.0
68320;BME280;55168;51.120;17.024;2023-03-04T05:19:00;100030;;;0.6;100.0
68320;BME280;55168;51.120;17.024;2023-03-04T05:20:00;100020;;;0.7;100.0
68320;BME280;55168;51.120;17.024;2023-03-04T05:21:00;100030;;;0.7;100.0
68320;BME280;55168;51.120;17.024;2023-03-04T05:22:00;100030;;;0.6;100.0
68320;BME280;55168;51.120;17.024;2023-03-04T05:23:00;100030;;;0.7;100.0
68320;BME280;55168;51.120;17.024;2023-03-04T05:24:00;100040;;;0.7;100.0
68320;BME280;55168;51.120;17.024;2023-03-04T05:25:00;100030;;;0.7;100.0
68320;BME280;55168;51.120;17.024;2023-03-04T05:26:00;100040;;;0.7;100.0
68320;BME280;55168;51.120;17.024;2023-03-04T05:27:00;100030;;;0.7;100.0
68320;BME280;55168;51.120;17.024;2023-03-04T05:28:00;100030;;;0.7;100.0
68320;BME280;55168;51.120;17.024;2023-03-04T05:29:00;100030;;;0.7;100.0
68320;BME280;55168;51.120;17.024;2023-03-04T05:30:00;100030;;;0.7;100.0
68320;BME280;55168;51.120;17.024;2023-03-04T05:31:00;100030;;;0.7;100.0
68320;BME280;55168;51.120;17.024;2023-03-04T05:32:00;100030;;;0.7;100.0
68320;BME280;55168;51.120;17.024;2023-03-04T05:33:00;100030;;;0.7;100.0
68320;BME280;55168;51.120;17.024;2023-03-04T05:34:00;100030;;;0.7;100.0